sensor_id;sensor_type;location;lat;lon;timestamp;temperature;humidity
34873;DHT22;21084;51.098;14.506;2022-10-17T00:01:11;12.10;99.90
34873;DHT22;21084;51.098;14.506;2022-10-17T00:03:41;12.20;99.90
34873;DHT22;21084;51.098;14.506;2022-10-17T00:06:11;12.10;99.90
34873;DHT22;21084;51.098;14.506;2022-10-17T00:08:41;12.20;99.90
34873;DHT22;21084;51.098;14.506;2022-10-17T00:11:14;12.20;99.90
34873;DHT22;21084;51.098;14.506;2022-10-17T00:13:43;12.20;99.90
34873;DHT22;21084;51.098;14.506;2022-10-17T00:16:12;12.20;99.90
34873;DHT22;21084;51.098;14.506;2022-10-17T00:18:40;12.20;99.90
34873;DHT22;21084;51.098;14.506;2022-10-17T00:21:14;12.10;99.90
34873;DHT22;21084;51.098;14.506;2022-10-17T00:23:42;12.10;99.90
34873;DHT22;21084;51.098;14.506;2022-10-17T00:26:10;12.10;99.90
34873;DHT22;21084;51.098;14.506;2022-10-17T00:28:40;12.10;99.90
34873;DHT22;21084;51.098;14.506;2022-10-17T00:31:08;12.00;99.90
34873;DHT22;21084;51.098;14.506;2022-10-17T00:33:36;12.10;99.90
34873;DHT22;21084;51.098;14.506;2022-10-17T00:36:06;12.10;99.90
34873;DHT22;21084;51.098;14.506;2022-10-17T00:38:35;12.00;99.90
34873;DHT22;21084;51.098;14.506;2022-10-17T00:41:04;11.90;99.90
34873;DHT22;21084;51.098;14.506;2022-10-17T00:43:58;12.10;99.90
34873;DHT22;21084;51.098;14.506;2022-10-17T00:46:28;12.10;99.90
34873;DHT22;21084;51.098;14.506;2022-10-17T00:48:59;12.00;99.90
34873;DHT22;21084;51.098;14.506;2022-10-17T00:51:33;12.10;99.90
34873;DHT22;21084;51.098;14.506;2022-10-17T00:54:02;12.10;99.90
34873;DHT22;21084;51.098;14.506;2022-10-17T00:56:31;12.00;99.90
34873;DHT22;21084;51.098;14.506;2022-10-17T00:59:01;12.10;99.90
34873;DHT22;21084;51.098;14.506;2022-10-17T01:01:35;12.10;99.90
34873;DHT22;21084;51.098;14.506;2022-10-17T01:04:05;12.00;99.90
34873;DHT22;21084;51.098;14.506;2022-10-17T01:06:35;12.10;99.90
34873;DHT22;21084;51.098;14.506;2022-10-17T01:09:03;12.10;99.90
34873;DHT22;21084;51.098;14.506;2022-10-17T01:11:36;12.10;99.90
34873;DHT22;21084;51.098;14.506;2022-10-17T01:14:15;12.10;99.90
34873;DHT22;21084;51.098;14.506;2022-10-17T01:16:51;12.00;99.90
34873;DHT22;21084;51.098;14.506;2022-10-17T01:19:52;11.90;99.90
34873;DHT22;21084;51.098;14.506;2022-10-17T01:22:26;11.90;99.90
34873;DHT22;21084;51.098;14.506;2022-10-17T01:25:16;12.00;99.90
34873;DHT22;21084;51.098;14.506;2022-10-17T01:28:01;12.00;99.90
34873;DHT22;21084;51.098;14.506;2022-10-17T01:30:55;11.80;99.90
34873;DHT22;21084;51.098;14.506;2022-10-17T01:33:31;11.80;99.90
34873;DHT22;21084;51.098;14.506;2022-10-17T01:36:08;11.90;99.90
34873;DHT22;21084;51.098;14.506;2022-10-17T01:38:42;11.80;99.90
34873;DHT22;21084;51.098;14.506;2022-10-17T01:41:15;11.80;99.90
34873;DHT22;21084;51.098;14.506;2022-10-17T01:43:48;11.90;99.90
34873;DHT22;21084;51.098;14.506;2022-10-17T01:46:23;11.80;99.90
34873;DHT22;21084;51.098;14.506;2022-10-17T01:48:54;11.80;99.90
34873;DHT22;21084;51.098;14.506;2022-10-17T01:51:26;11.80;99.90
34873;DHT22;21084;51.098;14.506;2022-10-17T01:53:59;11.60;99.90
34873;DHT22;21084;51.098;14.506;2022-10-17T01:56:30;11.60;99.90
34873;DHT22;21084;51.098;14.506;2022-10-17T01:59:03;11.60;99.90
34873;DHT22;21084;51.098;14.506;2022-10-17T02:01:34;11.60;99.90
34873;DHT22;21084;51.098;14.506;2022-10-17T02:04:06;11.60;99.90
34873;DHT22;21084;51.098;14.506;2022-10-17T02:06:37;11.50;99.90
34873;DHT22;21084;51.098;14.506;2022-10-17T02:09:20;11.50;99.90
34873;DHT22;21084;51.098;14.506;2022-10-17T02:12:12;11.50;99.90
34873;DHT22;21084;51.098;14.506;2022-10-17T02:14:52;11.50;99.90
34873;DHT22;21084;51.098;14.506;2022-10-17T02:17:33;11.60;99.90
34873;DHT22;21084;51.098;14.506;2022-10-17T02:20:10;11.50;99.90
34873;DHT22;21084;51.098;14.506;2022-10-17T02:22:51;11.50;99.90
34873;DHT22;21084;51.098;14.506;2022-10-17T02:25:28;11.50;99.90
34873;DHT22;21084;51.098;14.506;2022-10-17T02:28:09;11.40;99.90
34873;DHT22;21084;51.098;14.506;2022-10-17T02:30:46;11.40;99.90
34873;DHT22;21084;51.098;14.506;2022-10-17T02:33:23;11.20;99.90
34873;DHT22;21084;51.098;14.506;2022-10-17T02:35:53;11.10;99.90
34873;DHT22;21084;51.098;14.506;2022-10-17T02:38:24;11.10;99.90
34873;DHT22;21084;51.098;14.506;2022-10-17T02:40:54;11.10;99.90
34873;DHT22;21084;51.098;14.506;2022-10-17T02:43:22;11.10;99.90
34873;DHT22;21084;51.098;14.506;2022-10-17T02:45:51;11.10;99.90
34873;DHT22;21084;51.098;14.506;2022-10-17T02:48:24;11.00;99.90
34873;DHT22;21084;51.098;14.506;2022-10-17T02:51:01;11.00;99.90
34873;DHT22;21084;51.098;14.506;2022-10-17T02:53:35;11.00;99.90
34873;DHT22;21084;51.098;14.506;2022-10-17T02:56:09;10.90;99.90
34873;DHT22;21084;51.098;14.506;2022-10-17T02:58:40;10.90;99.90
34873;DHT22;21084;51.098;14.506;2022-10-17T03:01:10;11.00;99.90
34873;DHT22;21084;51.098;14.506;2022-10-17T03:03:40;11.10;99.90
34873;DHT22;21084;51.098;14.506;2022-10-17T03:06:08;11.30;99.90
34873;DHT22;21084;51.098;14.506;2022-10-17T03:08:37;11.30;99.90
34873;DHT22;21084;51.098;14.506;2022-10-17T03:11:05;11.30;99.90
34873;DHT22;21084;51.098;14.506;2022-10-17T03:13:33;11.20;99.90
34873;DHT22;21084;51.098;14.506;2022-10-17T03:16:05;11.10;99.90
34873;DHT22;21084;51.098;14.506;2022-10-17T03:18:33;11.20;99.90
34873;DHT22;21084;51.098;14.506;2022-10-17T03:21:03;11.20;99.90
34873;DHT22;21084;51.098;14.506;2022-10-17T03:23:31;11.20;99.90
34873;DHT22;21084;51.098;14.506;2022-10-17T03:26:02;11.10;99.90
34873;DHT22;21084;51.098;14.506;2022-10-17T03:28:31;11.00;99.90
34873;DHT22;21084;51.098;14.506;2022-10-17T03:30:59;11.00;99.90
34873;DHT22;21084;51.098;14.506;2022-10-17T03:33:33;11.10;99.90
34873;DHT22;21084;51.098;14.506;2022-10-17T03:36:06;11.10;99.90
34873;DHT22;21084;51.098;14.506;2022-10-17T03:38:34;11.10;99.90
34873;DHT22;21084;51.098;14.506;2022-10-17T03:41:04;11.10;99.90
34873;DHT22;21084;51.098;14.506;2022-10-17T03:43:33;11.00;99.90
34873;DHT22;21084;51.098;14.506;2022-10-17T03:46:01;11.00;99.90
34873;DHT22;21084;51.098;14.506;2022-10-17T03:48:29;11.00;99.90
34873;DHT22;21084;51.098;14.506;2022-10-17T03:50:58;11.00;99.90
34873;DHT22;21084;51.098;14.506;2022-10-17T03:53:29;11.00;99.90
34873;DHT22;21084;51.098;14.506;2022-10-17T03:56:08;10.90;99.90
34873;DHT22;21084;51.098;14.506;2022-10-17T03:58:36;10.90;99.90
34873;DHT22;21084;51.098;14.506;2022-10-17T04:01:04;10.90;99.90
34873;DHT22;21084;51.098;14.506;2022-10-17T04:03:33;10.90;99.90
34873;DHT22;21084;51.098;14.506;2022-10-17T04:06:02;10.90;99.90
34873;DHT22;21084;51.098;14.506;2022-10-17T04:08:33;10.90;99.90
34873;DHT22;21084;51.098;14.506;2022-10-17T04:11:03;11.10;99.90
34873;DHT22;21084;51.098;14.506;2022-10-17T04:13:32;11.10;99.90
34873;DHT22;21084;51.098;14.506;2022-10-17T04:16:02;11.30;99.90
34873;DHT22;21084;51.098;14.506;2022-10-17T04:18:31;11.30;99.90
34873;DHT22;21084;51.098;14.506;2022-10-17T04:21:00;11.50;99.90
34873;DHT22;21084;51.098;14.506;2022-10-17T04:23:28;11.60;99.90
34873;DHT22;21084;51.098;14.506;2022-10-17T04:25:58;11.60;99.90
34873;DHT22;21084;51.098;14.506;2022-10-17T04:28:27;11.60;99.90
34873;DHT22;21084;51.098;14.506;2022-10-17T04:30:56;11.90;99.90
34873;DHT22;21084;51.098;14.506;2022-10-17T04:33:24;11.80;99.90
34873;DHT22;21084;51.098;14.506;2022-10-17T04:35:58;11.80;99.90
34873;DHT22;21084;51.098;14.506;2022-10-17T04:38:28;12.00;99.90
34873;DHT22;21084;51.098;14.506;2022-10-17T04:40:58;11.80;99.90
34873;DHT22;21084;51.098;14.506;2022-10-17T04:43:28;11.90;99.90
34873;DHT22;21084;51.098;14.506;2022-10-17T04:45:57;12.00;99.90
34873;DHT22;21084;51.098;14.506;2022-10-17T04:48:25;12.10;99.90
34873;DHT22;21084;51.098;14.506;2022-10-17T04:50:53;12.20;99.90
34873;DHT22;21084;51.098;14.506;2022-10-17T04:53:22;12.10;99.90
34873;DHT22;21084;51.098;14.506;2022-10-17T04:55:50;12.30;99.90
34873;DHT22;21084;51.098;14.506;2022-10-17T04:58:20;12.20;99.90
34873;DHT22;21084;51.098;14.506;2022-10-17T05:00:48;12.30;99.90
34873;DHT22;21084;51.098;14.506;2022-10-17T05:03:16;12.40;99.90
34873;DHT22;21084;51.098;14.506;2022-10-17T05:05:44;12.30;99.90
34873;DHT22;21084;51.098;14.506;2022-10-17T05:08:12;12.30;99.90
34873;DHT22;21084;51.098;14.506;2022-10-17T05:10:42;12.30;99.90
34873;DHT22;21084;51.098;14.506;2022-10-17T05:13:12;12.20;99.90
34873;DHT22;21084;51.098;14.506;2022-10-17T05:15:41;12.20;99.90
34873;DHT22;21084;51.098;14.506;2022-10-17T05:18:09;12.20;99.90
34873;DHT22;21084;51.098;14.506;2022-10-17T05:20:37;12.20;99.90
34873;DHT22;21084;51.098;14.506;2022-10-17T05:23:05;12.20;99.90
34873;DHT22;21084;51.098;14.506;2022-10-17T05:25:33;12.20;99.90
34873;DHT22;21084;51.098;14.506;2022-10-17T05:28:01;12.10;99.90
34873;DHT22;21084;51.098;14.506;2022-10-17T05:30:29;12.00;99.90
34873;DHT22;21084;51.098;14.506;2022-10-17T05:33:04;11.90;99.90
34873;DHT22;21084;51.098;14.506;2022-10-17T05:35:32;11.80;99.90
34873;DHT22;21084;51.098;14.506;2022-10-17T05:38:00;11.80;99.90
34873;DHT22;21084;51.098;14.506;2022-10-17T05:40:28;11.80;99.90
34873;DHT22;21084;51.098;14.506;2022-10-17T05:42:56;11.80;99.90
34873;DHT22;21084;51.098;14.506;2022-10-17T05:45:24;11.70;99.90
34873;DHT22;21084;51.098;14.506;2022-10-17T05:47:52;11.70;99.90
34873;DHT22;21084;51.098;14.506;2022-10-17T05:50:21;11.60;99.90
34873;DHT22;21084;51.098;14.506;2022-10-17T05:52:52;11.60;99.90
34873;DHT22;21084;51.098;14.506;2022-10-17T05:55:20;11.60;99.90
34873;DHT22;21084;51.098;14.506;2022-10-17T05:57:48;11.60;99.90
34873;DHT22;21084;51.098;14.506;2022-10-17T06:00:18;11.60;99.90
34873;DHT22;21084;51.098;14.506;2022-10-17T06:02:46;11.50;99.90
34873;DHT22;21084;51.098;14.506;2022-10-17T06:05:15;11.60;99.90
34873;DHT22;21084;51.098;14.506;2022-10-17T06:07:44;11.50;99.90
34873;DHT22;21084;51.098;14.506;2022-10-17T06:10:12;11.50;99.90
34873;DHT22;21084;51.098;14.506;2022-10-17T06:12:42;11.50;99.90
34873;DHT22;21084;51.098;14.506;2022-10-17T06:15:11;11.60;99.90
34873;DHT22;21084;51.098;14.506;2022-10-17T06:17:39;11.50;99.90
34873;DHT22;21084;51.098;14.506;2022-10-17T06:20:08;11.60;99.90
34873;DHT22;21084;51.098;14.506;2022-10-17T06:22:36;11.70;99.90
34873;DHT22;21084;51.098;14.506;2022-10-17T06:25:06;11.70;99.90
34873;DHT22;21084;51.098;14.506;2022-10-17T06:27:33;11.80;99.90
34873;DHT22;21084;51.098;14.506;2022-10-17T06:30:02;11.80;99.90
34873;DHT22;21084;51.098;14.506;2022-10-17T06:32:30;11.90;99.90
34873;DHT22;21084;51.098;14.506;2022-10-17T06:34:58;12.00;99.90
34873;DHT22;21084;51.098;14.506;2022-10-17T06:37:30;12.10;99.90
34873;DHT22;21084;51.098;14.506;2022-10-17T06:40:02;12.30;99.90
34873;DHT22;21084;51.098;14.506;2022-10-17T06:42:32;12.60;99.90
34873;DHT22;21084;51.098;14.506;2022-10-17T06:45:00;12.70;99.90
34873;DHT22;21084;51.098;14.506;2022-10-17T06:47:29;13.00;99.90
34873;DHT22;21084;51.098;14.506;2022-10-17T06:49:58;13.10;99.90
34873;DHT22;21084;51.098;14.506;2022-10-17T06:52:26;13.30;99.90
34873;DHT22;21084;51.098;14.506;2022-10-17T06:54:53;13.50;99.90
34873;DHT22;21084;51.098;14.506;2022-10-17T06:57:22;13.80;99.90
34873;DHT22;21084;51.098;14.506;2022-10-17T06:59:51;14.00;99.90
34873;DHT22;21084;51.098;14.506;2022-10-17T07:02:21;14.20;99.90
34873;DHT22;21084;51.098;14.506;2022-10-17T07:04:49;14.50;99.90
34873;DHT22;21084;51.098;14.506;2022-10-17T07:07:17;14.70;99.90
34873;DHT22;21084;51.098;14.506;2022-10-17T07:09:45;14.90;99.90
34873;DHT22;21084;51.098;14.506;2022-10-17T07:12:13;15.20;99.90
34873;DHT22;21084;51.098;14.506;2022-10-17T07:14:41;15.40;99.90
34873;DHT22;21084;51.098;14.506;2022-10-17T07:17:10;15.70;99.90
34873;DHT22;21084;51.098;14.506;2022-10-17T07:19:39;16.00;99.90
34873;DHT22;21084;51.098;14.506;2022-10-17T07:22:08;16.10;99.90
34873;DHT22;21084;51.098;14.506;2022-10-17T07:24:36;16.40;99.90
34873;DHT22;21084;51.098;14.506;2022-10-17T07:27:04;16.60;99.90
34873;DHT22;21084;51.098;14.506;2022-10-17T07:29:32;16.80;99.90
34873;DHT22;21084;51.098;14.506;2022-10-17T07:32:00;17.10;99.90
34873;DHT22;21084;51.098;14.506;2022-10-17T07:34:31;17.20;99.90
34873;DHT22;21084;51.098;14.506;2022-10-17T07:37:00;17.40;99.90
34873;DHT22;21084;51.098;14.506;2022-10-17T07:39:27;17.70;99.90
34873;DHT22;21084;51.098;14.506;2022-10-17T07:41:55;17.80;99.90
34873;DHT22;21084;51.098;14.506;2022-10-17T07:44:24;18.10;99.90
34873;DHT22;21084;51.098;14.506;2022-10-17T07:46:52;18.30;99.90
34873;DHT22;21084;51.098;14.506;2022-10-17T07:49:20;18.40;99.90
34873;DHT22;21084;51.098;14.506;2022-10-17T07:51:49;18.30;99.90
34873;DHT22;21084;51.098;14.506;2022-10-17T07:54:17;18.30;99.90
34873;DHT22;21084;51.098;14.506;2022-10-17T07:56:45;18.60;99.90
34873;DHT22;21084;51.098;14.506;2022-10-17T07:59:16;19.00;99.90
34873;DHT22;21084;51.098;14.506;2022-10-17T08:01:44;19.20;99.90
34873;DHT22;21084;51.098;14.506;2022-10-17T08:04:12;19.30;99.90
34873;DHT22;21084;51.098;14.506;2022-10-17T08:06:42;19.40;99.90
34873;DHT22;21084;51.098;14.506;2022-10-17T08:09:11;19.20;99.90
34873;DHT22;21084;51.098;14.506;2022-10-17T08:11:39;19.40;99.90
34873;DHT22;21084;51.098;14.506;2022-10-17T08:14:09;19.50;99.90
34873;DHT22;21084;51.098;14.506;2022-10-17T08:16:37;19.70;99.90
34873;DHT22;21084;51.098;14.506;2022-10-17T08:19:05;19.70;99.90
34873;DHT22;21084;51.098;14.506;2022-10-17T08:21:34;19.90;99.90
34873;DHT22;21084;51.098;14.506;2022-10-17T08:24:02;19.90;99.90
34873;DHT22;21084;51.098;14.506;2022-10-17T08:26:31;20.10;99.90
34873;DHT22;21084;51.098;14.506;2022-10-17T08:29:01;20.10;99.90
34873;DHT22;21084;51.098;14.506;2022-10-17T08:31:29;20.20;99.90
34873;DHT22;21084;51.098;14.506;2022-10-17T08:33:58;20.20;99.90
34873;DHT22;21084;51.098;14.506;2022-10-17T08:36:26;20.30;99.90
34873;DHT22;21084;51.098;14.506;2022-10-17T08:38:54;20.30;99.90
34873;DHT22;21084;51.098;14.506;2022-10-17T08:41:36;20.40;99.90
34873;DHT22;21084;51.098;14.506;2022-10-17T08:44:14;20.30;99.90
34873;DHT22;21084;51.098;14.506;2022-10-17T08:46:52;20.10;99.90
34873;DHT22;21084;51.098;14.506;2022-10-17T08:49:28;19.80;99.90
34873;DHT22;21084;51.098;14.506;2022-10-17T08:52:04;19.70;99.90
34873;DHT22;21084;51.098;14.506;2022-10-17T08:54:39;19.50;99.90
34873;DHT22;21084;51.098;14.506;2022-10-17T08:57:12;19.60;99.90
34873;DHT22;21084;51.098;14.506;2022-10-17T08:59:41;19.70;99.90
34873;DHT22;21084;51.098;14.506;2022-10-17T09:02:22;19.60;99.90
34873;DHT22;21084;51.098;14.506;2022-10-17T09:05:09;19.70;99.90
34873;DHT22;21084;51.098;14.506;2022-10-17T09:07:44;19.60;99.90
34873;DHT22;21084;51.098;14.506;2022-10-17T09:10:17;19.70;99.90
34873;DHT22;21084;51.098;14.506;2022-10-17T09:12:56;19.90;99.90
34873;DHT22;21084;51.098;14.506;2022-10-17T09:15:42;20.10;99.90
34873;DHT22;21084;51.098;14.506;2022-10-17T09:18:15;20.30;99.90
34873;DHT22;21084;51.098;14.506;2022-10-17T09:21:18;20.50;99.90
34873;DHT22;21084;51.098;14.506;2022-10-17T09:23:51;20.50;99.90
34873;DHT22;21084;51.098;14.506;2022-10-17T09:26:35;20.60;99.90
34873;DHT22;21084;51.098;14.506;2022-10-17T09:29:17;21.10;99.90
34873;DHT22;21084;51.098;14.506;2022-10-17T09:31:50;21.50;99.90
34873;DHT22;21084;51.098;14.506;2022-10-17T09:34:19;21.70;99.90
34873;DHT22;21084;51.098;14.506;2022-10-17T09:36:52;21.20;99.90
34873;DHT22;21084;51.098;14.506;2022-10-17T09:39:22;21.60;99.90
34873;DHT22;21084;51.098;14.506;2022-10-17T09:41:53;21.80;99.90
34873;DHT22;21084;51.098;14.506;2022-10-17T09:44:26;22.10;99.90
34873;DHT22;21084;51.098;14.506;2022-10-17T09:47:16;22.50;99.90
34873;DHT22;21084;51.098;14.506;2022-10-17T09:49:46;22.70;99.90
34873;DHT22;21084;51.098;14.506;2022-10-17T09:52:16;22.90;99.90
34873;DHT22;21084;51.098;14.506;2022-10-17T09:54:46;23.00;99.90
34873;DHT22;21084;51.098;14.506;2022-10-17T09:57:15;23.10;99.90
34873;DHT22;21084;51.098;14.506;2022-10-17T09:59:47;23.40;99.90
34873;DHT22;21084;51.098;14.506;2022-10-17T10:02:45;23.30;99.90
34873;DHT22;21084;51.098;14.506;2022-10-17T10:05:16;23.40;99.90
34873;DHT22;21084;51.098;14.506;2022-10-17T10:08:00;22.90;99.90
34873;DHT22;21084;51.098;14.506;2022-10-17T10:10:29;23.20;99.90
34873;DHT22;21084;51.098;14.506;2022-10-17T10:13:05;23.50;99.90
34873;DHT22;21084;51.098;14.506;2022-10-17T10:15:37;24.00;99.90
34873;DHT22;21084;51.098;14.506;2022-10-17T10:18:30;24.40;99.90
34873;DHT22;21084;51.098;14.506;2022-10-17T10:21:05;24.90;99.90
34873;DHT22;21084;51.098;14.506;2022-10-17T10:23:34;24.60;99.90
34873;DHT22;21084;51.098;14.506;2022-10-17T10:26:18;24.30;99.90
34873;DHT22;21084;51.098;14.506;2022-10-17T10:28:57;24.40;99.90
34873;DHT22;21084;51.098;14.506;2022-10-17T10:31:33;24.10;99.90
34873;DHT22;21084;51.098;14.506;2022-10-17T10:34:12;24.20;99.90
34873;DHT22;21084;51.098;14.506;2022-10-17T10:36:49;24.90;99.90
34873;DHT22;21084;51.098;14.506;2022-10-17T10:39:40;25.10;99.90
34873;DHT22;21084;51.098;14.506;2022-10-17T10:42:19;25.20;99.90
34873;DHT22;21084;51.098;14.506;2022-10-17T10:44:47;24.30;99.90
34873;DHT22;21084;51.098;14.506;2022-10-17T10:47:20;24.30;99.90
34873;DHT22;21084;51.098;14.506;2022-10-17T10:49:50;24.40;99.90
34873;DHT22;21084;51.098;14.506;2022-10-17T10:52:26;25.10;99.90
34873;DHT22;21084;51.098;14.506;2022-10-17T10:55:04;25.20;99.90
34873;DHT22;21084;51.098;14.506;2022-10-17T10:57:35;25.70;99.90
34873;DHT22;21084;51.098;14.506;2022-10-17T11:00:10;25.20;99.90
34873;DHT22;21084;51.098;14.506;2022-10-17T11:02:47;24.70;99.90
34873;DHT22;21084;51.098;14.506;2022-10-17T11:05:22;24.90;99.90
34873;DHT22;21084;51.098;14.506;2022-10-17T11:07:57;25.20;99.90
34873;DHT22;21084;51.098;14.506;2022-10-17T11:10:32;25.70;99.90
34873;DHT22;21084;51.098;14.506;2022-10-17T11:13:05;26.10;99.90
34873;DHT22;21084;51.098;14.506;2022-10-17T11:15:41;26.40;99.90
34873;DHT22;21084;51.098;14.506;2022-10-17T11:18:18;25.90;99.90
34873;DHT22;21084;51.098;14.506;2022-10-17T11:20:52;26.10;99.90
34873;DHT22;21084;51.098;14.506;2022-10-17T11:23:29;26.90;99.90
34873;DHT22;21084;51.098;14.506;2022-10-17T11:26:01;27.30;99.90
34873;DHT22;21084;51.098;14.506;2022-10-17T11:28:31;27.00;99.90
34873;DHT22;21084;51.098;14.506;2022-10-17T11:31:01;26.80;99.90
34873;DHT22;21084;51.098;14.506;2022-10-17T11:33:43;26.60;99.90
34873;DHT22;21084;51.098;14.506;2022-10-17T11:36:13;26.10;99.90
34873;DHT22;21084;51.098;14.506;2022-10-17T11:38:46;26.20;99.90
34873;DHT22;21084;51.098;14.506;2022-10-17T11:41:18;27.00;99.90
34873;DHT22;21084;51.098;14.506;2022-10-17T11:43:51;27.10;99.90
34873;DHT22;21084;51.098;14.506;2022-10-17T11:46:21;27.10;99.90
34873;DHT22;21084;51.098;14.506;2022-10-17T11:49:00;26.90;99.90
34873;DHT22;21084;51.098;14.506;2022-10-17T11:51:36;27.30;99.90
34873;DHT22;21084;51.098;14.506;2022-10-17T11:54:29;27.40;99.90
34873;DHT22;21084;51.098;14.506;2022-10-17T11:57:09;27.60;99.90
34873;DHT22;21084;51.098;14.506;2022-10-17T11:59:51;27.20;99.90
34873;DHT22;21084;51.098;14.506;2022-10-17T12:02:26;27.20;99.90
34873;DHT22;21084;51.098;14.506;2022-10-17T12:05:03;27.60;99.90
34873;DHT22;21084;51.098;14.506;2022-10-17T12:07:41;28.00;99.90
34873;DHT22;21084;51.098;14.506;2022-10-17T12:10:27;28.60;99.90
34873;DHT22;21084;51.098;14.506;2022-10-17T12:12:56;28.50;99.90
34873;DHT22;21084;51.098;14.506;2022-10-17T12:15:44;28.80;99.90
34873;DHT22;21084;51.098;14.506;2022-10-17T12:18:15;28.30;99.90
34873;DHT22;21084;51.098;14.506;2022-10-17T12:20:54;27.50;99.90
34873;DHT22;21084;51.098;14.506;2022-10-17T12:23:26;27.50;99.90
34873;DHT22;21084;51.098;14.506;2022-10-17T12:25:55;27.40;99.90
34873;DHT22;21084;51.098;14.506;2022-10-17T12:28:31;26.80;99.90
34873;DHT22;21084;51.098;14.506;2022-10-17T12:31:01;26.50;99.90
34873;DHT22;21084;51.098;14.506;2022-10-17T12:33:33;26.80;99.90
34873;DHT22;21084;51.098;14.506;2022-10-17T12:36:37;27.00;99.90
34873;DHT22;21084;51.098;14.506;2022-10-17T12:42:30;27.80;99.90
34873;DHT22;21084;51.098;14.506;2022-10-17T12:44:58;27.80;99.90
34873;DHT22;21084;51.098;14.506;2022-10-17T12:47:34;28.30;99.90
34873;DHT22;21084;51.098;14.506;2022-10-17T12:50:07;28.50;99.90
34873;DHT22;21084;51.098;14.506;2022-10-17T12:53:01;28.20;99.90
34873;DHT22;21084;51.098;14.506;2022-10-17T12:55:31;28.10;99.90
34873;DHT22;21084;51.098;14.506;2022-10-17T12:58:02;27.90;99.90
34873;DHT22;21084;51.098;14.506;2022-10-17T13:00:35;27.90;99.90
34873;DHT22;21084;51.098;14.506;2022-10-17T13:03:09;28.50;99.90
34873;DHT22;21084;51.098;14.506;2022-10-17T13:05:41;28.90;99.30
34873;DHT22;21084;51.098;14.506;2022-10-17T13:08:16;28.60;99.40
34873;DHT22;21084;51.098;14.506;2022-10-17T13:10:48;28.40;99.10
34873;DHT22;21084;51.098;14.506;2022-10-17T13:13:20;28.50;99.20
34873;DHT22;21084;51.098;14.506;2022-10-17T13:15:50;27.30;99.90
34873;DHT22;21084;51.098;14.506;2022-10-17T13:18:22;27.40;99.90
34873;DHT22;21084;51.098;14.506;2022-10-17T13:20:55;28.00;99.90
34873;DHT22;21084;51.098;14.506;2022-10-17T13:23:28;28.20;99.90
34873;DHT22;21084;51.098;14.506;2022-10-17T13:26:17;27.90;99.10
34873;DHT22;21084;51.098;14.506;2022-10-17T13:28:59;28.40;99.40
34873;DHT22;21084;51.098;14.506;2022-10-17T13:31:30;28.90;97.40
34873;DHT22;21084;51.098;14.506;2022-10-17T13:33:58;29.20;97.20
34873;DHT22;21084;51.098;14.506;2022-10-17T13:36:28;28.60;97.50
34873;DHT22;21084;51.098;14.506;2022-10-17T13:38:58;28.60;97.10
34873;DHT22;21084;51.098;14.506;2022-10-17T13:41:28;28.30;97.30
34873;DHT22;21084;51.098;14.506;2022-10-17T13:44:06;27.80;98.00
34873;DHT22;21084;51.098;14.506;2022-10-17T13:46:38;28.20;98.40
34873;DHT22;21084;51.098;14.506;2022-10-17T13:49:15;28.10;97.80
34873;DHT22;21084;51.098;14.506;2022-10-17T13:51:45;28.20;97.80
34873;DHT22;21084;51.098;14.506;2022-10-17T13:54:34;28.40;97.90
34873;DHT22;21084;51.098;14.506;2022-10-17T13:57:04;28.60;97.20
34873;DHT22;21084;51.098;14.506;2022-10-17T13:59:37;28.60;98.10
34873;DHT22;21084;51.098;14.506;2022-10-17T14:02:08;28.80;97.80
34873;DHT22;21084;51.098;14.506;2022-10-17T14:04:40;28.70;97.60
34873;DHT22;21084;51.098;14.506;2022-10-17T14:07:34;28.50;96.70
34873;DHT22;21084;51.098;14.506;2022-10-17T14:10:26;28.60;96.60
34873;DHT22;21084;51.098;14.506;2022-10-17T14:12:57;28.40;95.70
34873;DHT22;21084;51.098;14.506;2022-10-17T14:15:28;28.40;97.00
34873;DHT22;21084;51.098;14.506;2022-10-17T14:17:59;27.50;96.50
34873;DHT22;21084;51.098;14.506;2022-10-17T14:20:34;27.60;98.30
34873;DHT22;21084;51.098;14.506;2022-10-17T14:23:29;27.50;97.80
34873;DHT22;21084;51.098;14.506;2022-10-17T14:26:09;27.10;98.20
34873;DHT22;21084;51.098;14.506;2022-10-17T14:28:37;26.80;98.50
34873;DHT22;21084;51.098;14.506;2022-10-17T14:31:24;26.70;99.20
34873;DHT22;21084;51.098;14.506;2022-10-17T14:33:55;26.70;98.50
34873;DHT22;21084;51.098;14.506;2022-10-17T14:36:36;26.30;98.40
34873;DHT22;21084;51.098;14.506;2022-10-17T14:39:06;25.90;98.40
34873;DHT22;21084;51.098;14.506;2022-10-17T14:41:43;25.10;99.10
34873;DHT22;21084;51.098;14.506;2022-10-17T14:44:19;24.70;99.90
34873;DHT22;21084;51.098;14.506;2022-10-17T14:46:51;24.30;99.90
34873;DHT22;21084;51.098;14.506;2022-10-17T14:49:25;23.60;99.90
34873;DHT22;21084;51.098;14.506;2022-10-17T14:52:27;23.30;99.90
34873;DHT22;21084;51.098;14.506;2022-10-17T14:54:57;23.00;99.90
34873;DHT22;21084;51.098;14.506;2022-10-17T14:57:28;23.00;99.90
34873;DHT22;21084;51.098;14.506;2022-10-17T14:59:56;22.80;99.90
34873;DHT22;21084;51.098;14.506;2022-10-17T15:02:26;22.30;99.90
34873;DHT22;21084;51.098;14.506;2022-10-17T15:04:55;22.20;99.90
34873;DHT22;21084;51.098;14.506;2022-10-17T15:07:23;22.00;99.90
34873;DHT22;21084;51.098;14.506;2022-10-17T15:09:52;21.70;99.90
34873;DHT22;21084;51.098;14.506;2022-10-17T15:12:21;21.50;99.90
34873;DHT22;21084;51.098;14.506;2022-10-17T15:14:51;21.20;99.90
34873;DHT22;21084;51.098;14.506;2022-10-17T15:17:24;21.00;99.90
34873;DHT22;21084;51.098;14.506;2022-10-17T15:19:53;20.80;99.90
34873;DHT22;21084;51.098;14.506;2022-10-17T15:22:22;20.50;99.90
34873;DHT22;21084;51.098;14.506;2022-10-17T15:24:50;20.40;99.90
34873;DHT22;21084;51.098;14.506;2022-10-17T15:27:19;20.20;99.90
34873;DHT22;21084;51.098;14.506;2022-10-17T15:29:47;20.10;99.90
34873;DHT22;21084;51.098;14.506;2022-10-17T15:32:17;20.00;99.90
34873;DHT22;21084;51.098;14.506;2022-10-17T15:34:45;19.90;99.90
34873;DHT22;21084;51.098;14.506;2022-10-17T15:37:16;19.70;99.90
34873;DHT22;21084;51.098;14.506;2022-10-17T15:39:48;19.60;99.90
34873;DHT22;21084;51.098;14.506;2022-10-17T15:42:20;19.60;99.90
34873;DHT22;21084;51.098;14.506;2022-10-17T15:45:16;19.50;99.90
34873;DHT22;21084;51.098;14.506;2022-10-17T15:47:49;19.40;99.90
34873;DHT22;21084;51.098;14.506;2022-10-17T15:50:18;19.40;99.90
34873;DHT22;21084;51.098;14.506;2022-10-17T15:52:47;19.20;99.90